CANO2: Clear Boggy Creek abv Caney Creek nr Caney, OK

                                SHEF ID:       CANO2     Clear Boggy Creek abv Caney Cree
STATION TYPE:
Regulating: Stage = 19.00, Flow = 2600

STAGE RIV-FLOW VOLTAGE BAT-LOAD
ft cfs volt volt
Ccp-Rev Ccp-Rev Ccp-Rev Ccp-Rev
(America/Chicago)
04/30 00:00 16.92 1860 12.70 ----
04/30 01:00 16.57 1740 12.68 ----
04/30 02:00 16.29 1640 12.66 ----
04/30 03:00 16.03 1550 12.66 ----
04/30 04:00 15.81 1470 12.64 ----
04/30 05:00 15.63 1410 12.63 ----
04/30 06:00 15.45 1350 12.61 ----
04/30 07:00 15.30 1300 12.59 ----
04/30 08:00 15.18 1260 12.78 ----
04/30 09:00 15.04 1220 13.39 ----
04/30 10:00 14.95 1190 13.65 ----
04/30 11:00 14.83 1150 13.80 ----
04/30 12:00 14.73 1110 13.78 ----
04/30 13:00 14.65 1090 13.87 ----
04/30 14:00 14.57 1060 13.82 ----
04/30 15:00 14.49 1040 13.73 ----
04/30 16:00 14.40 1010 13.66 ----
04/30 17:00 14.32 984 13.64 ----
04/30 18:00 14.25 962 13.49 ----
04/30 19:00 14.19 943 13.32 ----
04/30 20:00 14.13 924 13.09 ----
04/30 21:00 14.06 902 12.95 ----
04/30 22:00 13.98 874 12.81 ----
04/30 23:00 ---- ---- ---- ----
Data processed at Fri 01May2026 04:01 GMT

NOTICE: If you are parsing this page

Please convert to using our Data API. Starting early 2026 we will be migrating to: https://water.usace.army.mil with modern pages rendered in JavaScript. When this migration completes you will no longer be able to scrape this page! CWMSDataAPI (CDA)

Timeseries IDs (TSIDs)

TSIDs used from left to right in the data table
CANE.Stage.Inst.1Hour.0.Ccp-Rev
CANE.Flow.Inst.1Hour.0.Ccp-Rev
CANE.Volt-Battery.Inst.1Hour.0.Ccp-Rev
CANE.Volt-Battery Load.Inst.1Hour.0.Ccp-Rev

                            

All information presented herein is the property of the government of the United States of America and may be revised or deleted at any time without prior notice. Dissemination of this information without the expressed written consent of the Public Affairs Office, Tulsa District U.S. Army Corps of Engineers is strictly prohibited. These data are gathered electronically and, as presented, have NOT undergone any form of quality control. These data are NOT guaranteed to be valid or correct.